Hauptseite
METAR-TAF:

METAR-TAF

Flughäfen :

Schwäbisch Hall, Deutschland

Flugplatz Schwäbisch Hall-Hessental (Adolf Würth Airport)

Breite: 49-07-06N, Länge: 9-47-02E, Höhe: 398 m

Beobachtung

Neuester Wetterbericht von vor 37 Minuten, um 08:20 UTC
Wind 4 kt aus Südwest, variierte zwischen Süd und West
Temperatur 7°C
Luftfeuchtigkeit 61%
Luftdruck 1010 hPa
Sichtweite 10 km oder mehr
Durchbrochene Bewölkung in der Höhe von 3300 ft

METAR: EDTY 270820Z 22004KT 180V280 9999 BKN033 07/M00 Q1010

Zeit: 09:57 (08:57 UTC)

Prognose

Neuester Wetterbericht von vor 57 Minuten, um 08:00 UTC
Gültige Prognose vom 27 um 09 UTC bis 27 um 18 UTC
Wind 6 kt aus Süd/Südwest
Sichtweite 10 km oder mehr
Aufgelockert bewölkt in der Höhe von 3500 ft
Übergehend zu
vom 27 um 11 UTC bis 27 um 13 UTC
Wind 11 kt aus Süd/Südwest

TAF: EDTY 270800Z 2709/2718 21006KT 9999 SCT035 BECMG 2711/2713 21011KT

Wetterbeobachtungen und Prognosen von mehr als 4000 Flughäfen (METAR und TAF Bericht).

Die verfügbaren Stationen werden durch gelbe und rote Markierungen auf der Karte dargestellt.

Führen Sie die Maus auf sie, um den Namen der Station zu sehen.

Darauf klicken, um die Beobachtung von Wetterbeobachtungen und Prognosen zu sehen.

Um die Karte zu ändern : klicken Sie auf den grünen Tasten mit einem schwarzen Kreuz Zum Vergrößern, auf den grünen Button mit einem Gedankenstrich zu verkleinern, oder auf die grünen Pfeile für benachbarte Karten.


METAR-TAF: